ENHD/HAU METAR and TAF weather

Enter ICAO airport designator
Station Type Date Time Source
ENHD METAR 2019/05/26 23:20 UTC NOAA

ENHD 262320Z AUTO 35014KT 9999 SCT100/// 09/05 Q0999


Station Type Date Time Source
ENHD Decoded METAR 2019/05/26 23:20 UTC NOAA

Haugesund / Karmoy, Norway (ENHD) 59-21N 005-13E 24M
May 26, 2019 - 07:20 PM EDT / 2019.05.26 2320 UTC
Wind: from the N (350 degrees) at 16 MPH (14 KT):0
Visibility: greater than 7 mile(s):0
Sky conditions: partly cloudy
Temperature: 48 F (9 C)
Dew Point: 41 F (5 C)
Relative Humidity: 75%
Pressure (altimeter): 29.50 in. Hg (0999 hPa)
ob: ENHD 262320Z AUTO 35014KT 9999 SCT100/// 09/05 Q0999
cycle: 23

Station Type Date Time Source
ENHD TAF UTC NOAA

Error!

Example: see airport list